Time;durP1;ratioP1;P1;durP2;ratioP2;P2;SDS_P1;SDS_P2;PMS_P1;PMS_P2;Temp;Humidity;BMP_temperature;BMP_pressure;BME280_temperature;BME280_humidity;BME280_pressure;Samples;Min_cycle;Max_cycle;Signal;HPM_P1;HPM_P2
2023/10/10 00:00:23;;;;;;;11.30;8.10;;;10.00;99.90;;;;;;4925678;29;20039;-66
2023/10/10 00:02:51;;;;;;;12.32;8.57;;;10.00;99.90;;;;;;4923553;29;20036;-66
2023/10/10 00:05:18;;;;;;;9.07;6.70;;;10.00;99.90;;;;;;4918274;29;20031;-66
2023/10/10 00:07:44;;;;;;;12.80;7.45;;;10.00;99.90;;;;;;4920571;29;20035;-66
2023/10/10 00:10:13;;;;;;;11.48;8.18;;;10.10;99.90;;;;;;4920761;29;20464;-66
2023/10/10 00:12:39;;;;;;;12.15;7.93;;;10.10;99.90;;;;;;4921073;29;20225;-66
2023/10/10 00:15:09;;;;;;;13.25;8.88;;;10.10;99.90;;;;;;4920922;29;20031;-66
2023/10/10 00:17:36;;;;;;;13.07;8.77;;;10.10;99.90;;;;;;4920750;29;20059;-66
2023/10/10 00:20:16;;;;;;;14.20;9.15;;;10.10;99.90;;;;;;4920567;29;20547;-66
2023/10/10 00:22:48;;;;;;;9.38;6.97;;;10.00;99.90;;;;;;4920789;29;20055;-66
2023/10/10 00:25:23;;;;;;;13.52;8.35;;;10.10;99.90;;;;;;4917026;29;20036;-66
2023/10/10 00:27:55;;;;;;;8.35;6.10;;;10.10;99.90;;;;;;4920956;29;20365;-66
2023/10/10 00:30:22;;;;;;;9.35;7.00;;;10.10;99.90;;;;;;4919702;29;20203;-66
2023/10/10 00:32:50;;;;;;;14.35;8.77;;;10.10;99.90;;;;;;4920790;29;20091;-66
2023/10/10 00:35:17;;;;;;;10.20;7.75;;;10.10;99.90;;;;;;4928271;29;20039;-66
2023/10/10 00:37:44;;;;;;;9.02;7.15;;;10.10;99.90;;;;;;4926106;29;20712;-66
2023/10/10 00:40:14;;;;;;;9.23;6.70;;;10.10;99.90;;;;;;4922098;28;20112;-65
2023/10/10 00:42:42;;;;;;;13.25;8.40;;;10.10;99.90;;;;;;4922649;29;20027;-66
2023/10/10 00:45:10;;;;;;;12.25;8.40;;;10.20;99.90;;;;;;4927702;28;20411;-66
2023/10/10 00:47:43;;;;;;;16.83;10.70;;;10.10;99.90;;;;;;4923257;28;20024;-57
2023/10/10 00:50:20;;;;;;;14.70;9.52;;;10.20;99.90;;;;;;4930804;29;20035;-55
2023/10/10 00:52:56;;;;;;;17.67;12.27;;;10.10;99.90;;;;;;4928686;29;20255;-56
2023/10/10 00:55:24;;;;;;;15.90;9.95;;;10.10;99.90;;;;;;4927060;28;20032;-56
2023/10/10 00:57:53;;;;;;;13.23;8.80;;;10.10;99.90;;;;;;4930803;29;20066;-52
2023/10/10 01:00:20;;;;;;;14.13;9.68;;;10.10;99.90;;;;;;4925010;29;20038;-46
2023/10/10 01:02:46;;;;;;;13.93;8.30;;;10.10;99.90;;;;;;4927671;28;20071;-52
2023/10/10 01:05:12;;;;;;;11.25;8.35;;;10.10;99.90;;;;;;4930334;29;20034;-50
2023/10/10 01:07:38;;;;;;;11.43;8.77;;;10.10;99.90;;;;;;4927581;29;20020;-49
2023/10/10 01:10:12;;;;;;;10.90;7.78;;;10.10;99.90;;;;;;4928898;28;20066;-50
2023/10/10 01:12:42;;;;;;;10.30;7.53;;;10.20;99.90;;;;;;4929872;29;20034;-51
2023/10/10 01:15:15;;;;;;;13.45;8.95;;;10.20;99.90;;;;;;4927103;29;20110;-50
2023/10/10 01:17:43;;;;;;;15.13;9.70;;;10.20;99.90;;;;;;4920408;29;20067;-46
2023/10/10 01:20:19;;;;;;;13.55;8.68;;;10.20;99.90;;;;;;4930201;28;20035;-49
2023/10/10 01:22:48;;;;;;;13.73;8.63;;;10.20;99.90;;;;;;4929759;29;20051;-46
2023/10/10 01:25:41;;;;;;;12.23;8.23;;;10.30;99.90;;;;;;4927077;29;20030;-50
2023/10/10 01:31:10;;;;;;;11.20;7.90;;;10.30;99.90;;;;;;4927070;28;20308;-50
2023/10/10 01:33:36;;;;;;;12.13;7.53;;;10.30;99.90;;;;;;4922694;29;20094;-51
2023/10/10 01:36:11;;;;;;;13.80;8.73;;;10.40;99.90;;;;;;4931114;29;20563;-53
2023/10/10 01:38:56;;;;;;;10.15;6.88;;;10.40;99.90;;;;;;4930989;29;20034;-51
2023/10/10 01:41:48;;;;;;;9.50;6.97;;;10.40;99.90;;;;;;4927821;29;20031;-53
2023/10/10 01:44:22;;;;;;;9.05;5.75;;;10.50;99.90;;;;;;4929549;28;20027;-53
2023/10/10 01:46:51;;;;;;;9.57;6.43;;;10.50;99.90;;;;;;4923785;29;20028;-48
2023/10/10 01:49:20;;;;;;;9.55;6.43;;;10.50;99.90;;;;;;4927309;28;20051;-50
2023/10/10 01:51:55;;;;;;;7.80;6.00;;;10.50;99.90;;;;;;4927171;29;20031;-50
2023/10/10 01:54:22;;;;;;;6.57;4.78;;;10.50;99.90;;;;;;4927091;29;20102;-49
2023/10/10 01:56:51;;;;;;;8.48;5.25;;;10.50;99.90;;;;;;4921822;28;20020;-52
2023/10/10 01:59:19;;;;;;;6.88;4.82;;;10.50;99.90;;;;;;4929292;29;20019;-46
2023/10/10 02:01:47;;;;;;;7.57;5.53;;;10.50;99.90;;;;;;4925071;29;20119;-47
2023/10/10 02:04:14;;;;;;;9.52;5.63;;;10.50;99.90;;;;;;4931067;28;20496;-48
2023/10/10 02:06:40;;;;;;;8.20;5.78;;;10.50;99.90;;;;;;4929059;28;20020;-51
2023/10/10 02:09:19;;;;;;;6.57;4.88;;;10.50;99.90;;;;;;4926111;28;20031;-52
2023/10/10 02:11:53;;;;;;;4.78;4.13;;;10.50;99.90;;;;;;4926322;28;20462;-52
2023/10/10 02:14:24;;;;;;;6.43;4.68;;;10.50;99.90;;;;;;4922765;29;20459;-51
2023/10/10 02:16:49;;;;;;;11.65;7.25;;;10.60;99.90;;;;;;4931937;28;20432;-48
2023/10/10 02:19:15;;;;;;;12.25;6.75;;;10.60;99.90;;;;;;4930318;28;20027;-48
2023/10/10 02:21:47;;;;;;;9.98;6.03;;;10.50;99.90;;;;;;4926004;28;20043;-51
2023/10/10 02:24:38;;;;;;;6.88;5.25;;;10.50;99.90;;;;;;4929052;28;20042;-49
2023/10/10 02:27:05;;;;;;;6.85;5.43;;;10.50;99.90;;;;;;4929054;29;20035;-51
2023/10/10 02:32:06;;;;;;;10.27;7.13;;;10.50;99.90;;;;;;4927543;29;20020;-52
2023/10/10 02:34:34;;;;;;;10.30;6.85;;;10.50;99.90;;;;;;4925253;29;20051;-51
2023/10/10 02:39:56;;;;;;;9.38;6.63;;;10.50;99.90;;;;;;4921306;29;20431;-51
2023/10/10 02:42:23;;;;;;;10.52;6.95;;;10.50;99.90;;;;;;4924274;28;20452;-50
2023/10/10 02:44:57;;;;;;;10.55;6.70;;;10.50;99.90;;;;;;4931801;29;20027;-51
2023/10/10 02:47:36;;;;;;;11.05;8.00;;;10.50;99.90;;;;;;4923568;29;20034;-49
2023/10/10 02:50:15;;;;;;;14.73;9.00;;;10.60;99.90;;;;;;4928686;29;20032;-52
2023/10/10 02:52:45;;;;;;;12.55;7.47;;;10.50;99.90;;;;;;4929827;29;20048;-51
2023/10/10 02:55:16;;;;;;;12.00;8.07;;;10.50;99.90;;;;;;4930501;28;20036;-49
2023/10/10 02:57:41;;;;;;;11.63;7.47;;;10.50;99.90;;;;;;4932718;29;20023;-50
2023/10/10 03:02:53;;;;;;;8.25;5.85;;;10.50;99.90;;;;;;4925332;28;20392;-50
2023/10/10 03:05:37;;;;;;;10.95;7.03;;;10.50;99.90;;;;;;4924318;29;20042;-52
2023/10/10 03:08:12;;;;;;;10.48;6.30;;;10.50;99.90;;;;;;4921296;29;20147;-48
2023/10/10 03:10:39;;;;;;;7.50;5.15;;;10.50;99.90;;;;;;4924193;29;20027;-51
2023/10/10 03:13:13;;;;;;;10.57;6.82;;;10.50;99.90;;;;;;4925876;29;20027;-54
2023/10/10 03:15:40;;;;;;;11.93;7.38;;;10.50;99.90;;;;;;4920998;29;20107;-57
2023/10/10 03:20:50;;;;;;;10.82;7.22;;;10.50;99.90;;;;;;4927508;29;20186;-59
2023/10/10 03:26:03;;;;;;;9.02;6.78;;;10.40;99.90;;;;;;4930876;28;20039;-55
2023/10/10 03:28:32;;;;;;;10.18;6.95;;;10.40;99.90;;;;;;4932287;29;20036;-58
2023/10/10 03:31:08;;;;;;;8.85;5.88;;;10.40;99.90;;;;;;4924937;29;20411;-56
2023/10/10 03:33:43;;;;;;;;;;;10.50;99.90;;;;;;4928603;29;20042;-57
2023/10/10 05:25:13;;;;;;;5.22;3.40;;;10.70;99.90;;;;;;4919236;29;20119;-57
2023/10/10 05:27:42;;;;;;;5.20;3.80;;;10.70;99.90;;;;;;4921812;29;20055;-57
2023/10/10 05:30:23;;;;;;;7.97;4.18;;;10.70;99.90;;;;;;4922075;29;20388;-57
2023/10/10 05:33:00;;;;;;;6.60;4.72;;;10.70;99.90;;;;;;4925473;29;20123;-58
2023/10/10 05:35:27;;;;;;;7.80;5.63;;;10.70;99.90;;;;;;4928647;28;20058;-57
2023/10/10 05:37:53;;;;;;;6.45;4.53;;;10.70;99.90;;;;;;4913278;28;20078;-56
2023/10/10 05:40:20;;;;;;;7.55;5.78;;;10.70;99.90;;;;;;4921194;29;20061;-57
2023/10/10 05:42:45;;;;;;;7.57;5.38;;;10.70;99.90;;;;;;4921398;29;20529;-57
2023/10/10 05:45:13;;;;;;;8.75;6.10;;;10.60;99.90;;;;;;4921386;29;20214;-56
2023/10/10 05:47:42;;;;;;;6.88;5.22;;;10.60;99.90;;;;;;4923373;29;20024;-57
2023/10/10 05:50:10;;;;;;;6.47;4.80;;;10.60;99.90;;;;;;4919859;29;20075;-57
2023/10/10 05:52:38;;;;;;;6.20;4.95;;;10.70;99.90;;;;;;4919179;29;20106;-56
2023/10/10 05:55:05;;;;;;;6.93;5.53;;;10.70;99.90;;;;;;4921548;29;20074;-57
2023/10/10 05:57:33;;;;;;;8.27;5.68;;;10.70;99.90;;;;;;4921274;29;20082;-57
2023/10/10 05:59:59;;;;;;;6.93;5.57;;;10.60;99.90;;;;;;4921473;29;20062;-57
2023/10/10 06:02:27;;;;;;;8.23;5.55;;;10.70;99.90;;;;;;4921087;29;20060;-56
2023/10/10 06:04:53;;;;;;;7.80;5.00;;;10.70;99.90;;;;;;4918631;29;20024;-57
2023/10/10 06:07:20;;;;;;;8.18;5.60;;;10.70;99.90;;;;;;4928504;28;20433;-57
2023/10/10 06:09:48;;;;;;;8.82;5.32;;;10.70;99.90;;;;;;4925694;29;20448;-58
2023/10/10 06:12:15;;;;;;;6.95;5.50;;;10.80;99.90;;;;;;4931080;28;20103;-57
2023/10/10 06:14:42;;;;;;;8.40;4.90;;;10.80;99.90;;;;;;4930719;28;20019;-57
2023/10/10 06:17:08;;;;;;;6.05;5.28;;;10.80;99.90;;;;;;4929040;28;20027;-57
2023/10/10 06:19:34;;;;;;;6.18;4.85;;;10.80;99.90;;;;;;4930715;28;20026;-57
2023/10/10 06:22:02;;;;;;;6.18;4.35;;;10.90;99.90;;;;;;4932849;29;20039;-57
2023/10/10 06:24:28;;;;;;;6.25;4.55;;;10.90;99.90;;;;;;4929411;28;20425;-57
2023/10/10 06:27:00;;;;;;;7.15;5.32;;;10.90;99.90;;;;;;4929305;28;20110;-57
2023/10/10 06:29:34;;;;;;;5.68;4.30;;;10.90;99.90;;;;;;4933120;29;20106;-57
2023/10/10 06:32:00;;;;;;;5.25;4.13;;;10.90;99.90;;;;;;4930550;29;20034;-57
2023/10/10 06:34:34;;;;;;;5.10;3.67;;;11.00;99.90;;;;;;4932185;29;20031;-57
2023/10/10 06:37:10;;;;;;;5.88;3.50;;;11.00;99.90;;;;;;4925568;28;20036;-57
2023/10/10 06:39:53;;;;;;;8.02;4.32;;;11.00;99.90;;;;;;4932967;29;20555;-57
2023/10/10 06:42:27;;;;;;;6.22;4.20;;;11.10;99.90;;;;;;4931193;28;20035;-57
2023/10/10 06:44:53;;;;;;;4.88;3.63;;;11.00;99.90;;;;;;4926384;29;20042;-57
2023/10/10 06:47:18;;;;;;;7.75;5.15;;;11.10;99.90;;;;;;4934085;28;20024;-56
2023/10/10 06:49:44;;;;;;;7.03;4.82;;;11.10;99.90;;;;;;4928293;29;20106;-54
2023/10/10 06:52:18;;;;;;;8.45;4.82;;;11.10;99.90;;;;;;4931552;28;20519;-57
2023/10/10 06:54:44;;;;;;;7.07;4.63;;;11.10;99.90;;;;;;4925814;28;20447;-55
2023/10/10 06:57:17;;;;;;;5.72;4.03;;;11.10;99.90;;;;;;4932481;29;20023;-57
2023/10/10 06:59:42;;;;;;;7.35;4.38;;;11.10;99.90;;;;;;4930773;29;20071;-57
2023/10/10 07:02:21;;;;;;;6.63;4.68;;;11.20;99.90;;;;;;4929990;28;20139;-57
2023/10/10 07:04:54;;;;;;;7.90;4.53;;;11.30;99.90;;;;;;4932628;29;20083;-56
2023/10/10 07:07:21;;;;;;;6.28;3.75;;;11.30;99.90;;;;;;4925266;29;20032;-57
2023/10/10 07:09:46;;;;;;;5.82;3.90;;;11.30;99.90;;;;;;4930768;29;20035;-57
2023/10/10 07:12:14;;;;;;;6.13;4.53;;;11.40;99.90;;;;;;4927941;28;20047;-57
2023/10/10 07:14:43;;;;;;;9.02;4.60;;;11.40;99.90;;;;;;4930791;28;20027;-56
2023/10/10 07:17:13;;;;;;;7.32;4.55;;;11.40;99.90;;;;;;4929427;29;20078;-57
2023/10/10 07:21:04;;;;;;;5.53;3.85;;;11.50;99.90;;;;;;4928398;28;20530;-58
2023/10/10 07:22:41;;;;;;;7.55;4.80;;;11.60;99.90;;;;;;4926379;29;20126;-58
2023/10/10 07:25:24;;;;;;;8.65;4.78;;;11.80;99.90;;;;;;4932155;29;20034;-58
2023/10/10 07:27:50;;;;;;;10.07;5.22;;;11.80;99.90;;;;;;4930958;28;20063;-58
2023/10/10 07:30:18;;;;;;;6.20;3.88;;;11.90;99.90;;;;;;4928415;28;20055;-57
2023/10/10 07:32:48;;;;;;;7.05;5.00;;;12.00;99.90;;;;;;4928432;29;20564;-57
2023/10/10 07:35:15;;;;;;;8.13;4.93;;;12.10;99.90;;;;;;4931252;29;20046;-58
2023/10/10 07:37:43;;;;;;;10.73;5.38;;;12.20;99.90;;;;;;4925837;28;20034;-56
2023/10/10 07:42:49;;;;;;;6.05;4.03;;;12.60;99.90;;;;;;4932037;29;20049;-57
2023/10/10 07:45:15;;;;;;;5.30;4.13;;;12.90;99.90;;;;;;4927913;28;20035;-57
2023/10/10 07:50:49;;;;;;;3.67;3.00;;;13.70;99.90;;;;;;4913565;29;20099;-57
2023/10/10 07:53:17;;;;;;;6.18;4.20;;;14.20;99.90;;;;;;4929057;29;20086;-57
2023/10/10 07:58:24;;;;;;;5.65;3.55;;;15.10;99.90;;;;;;4928338;28;20511;-57
2023/10/10 08:00:52;;;;;;;4.70;3.63;;;15.50;99.90;;;;;;4931524;28;20035;-57
2023/10/10 08:03:20;;;;;;;7.68;4.63;;;15.70;99.90;;;;;;4928456;28;20032;-57
2023/10/10 08:05:48;;;;;;;4.03;3.40;;;15.90;99.90;;;;;;4930736;28;20027;-57
2023/10/10 08:08:15;;;;;;;9.65;4.03;;;16.00;99.90;;;;;;4932905;28;20023;-57
2023/10/10 08:10:44;;;;;;;4.53;4.13;;;16.00;99.90;;;;;;4924775;29;20495;-58
2023/10/10 08:13:14;;;;;;;9.38;5.97;;;15.90;99.90;;;;;;4927511;28;20083;-57
2023/10/10 08:18:49;;;;;;;6.15;4.68;;;16.10;99.90;;;;;;4928998;29;20586;-57
2023/10/10 08:21:15;;;;;;;8.18;5.72;;;16.10;99.90;;;;;;4929316;29;20032;-57
2023/10/10 08:23:46;;;;;;;5.85;4.75;;;16.20;99.90;;;;;;4928248;29;20042;-57
2023/10/10 08:26:18;;;;;;;10.60;5.43;;;16.20;99.90;;;;;;4925202;29;20034;-57
2023/10/10 08:28:50;;;;;;;7.88;5.18;;;16.20;99.90;;;;;;4921924;29;20488;-57
2023/10/10 08:31:16;;;;;;;9.45;5.75;;;16.10;99.90;;;;;;4927641;29;20106;-55
2023/10/10 08:33:49;;;;;;;5.10;4.30;;;16.00;99.90;;;;;;4925013;29;20083;-57
2023/10/10 08:36:23;;;;;;;5.95;4.43;;;16.00;99.90;;;;;;4918826;29;20107;-58
2023/10/10 08:38:53;;;;;;;5.68;4.05;;;16.00;99.90;;;;;;4924125;29;20020;-57
2023/10/10 08:41:31;;;;;;;7.28;4.90;;;16.20;99.90;;;;;;4927092;29;20491;-58
2023/10/10 08:44:01;;;;;;;6.00;4.30;;;16.30;99.90;;;;;;4929353;28;20035;-57
2023/10/10 08:46:29;;;;;;;6.97;5.43;;;16.30;99.90;;;;;;4929437;28;20031;-60
2023/10/10 08:49:00;;;;;;;6.15;4.97;;;16.20;99.90;;;;;;4930761;29;20023;-60
2023/10/10 08:51:34;;;;;;;6.63;4.28;;;16.10;99.90;;;;;;4923500;28;20102;-59
2023/10/10 08:54:02;;;;;;;10.70;6.13;;;16.10;99.90;;;;;;4928891;28;20024;-59
2023/10/10 08:56:37;;;;;;;7.38;5.35;;;16.10;99.90;;;;;;4930489;29;20034;-59
2023/10/10 08:59:10;;;;;;;8.32;5.30;;;16.10;99.90;;;;;;4926752;29;20256;-59
2023/10/10 09:01:36;;;;;;;6.30;4.38;;;16.10;99.90;;;;;;4929936;28;20054;-60
2023/10/10 09:04:03;;;;;;;5.05;4.15;;;16.10;99.90;;;;;;4927287;29;20038;-60
2023/10/10 09:06:44;;;;;;;6.43;4.45;;;16.00;99.90;;;;;;4929329;28;20031;-59
2023/10/10 09:09:33;;;;;;;6.25;4.25;;;16.00;99.90;;;;;;4928410;29;20027;-59
2023/10/10 09:11:56;;;;;;;;;;;15.90;99.90;;;;;;4924127;29;20090;-58
2023/10/10 09:14:54;;;;;;;4.43;3.63;;;15.90;99.90;;;;;;4928270;29;19910;-60
2023/10/10 09:17:34;;;;;;;6.97;4.10;;;15.80;99.90;;;;;;4926764;28;20032;-57
2023/10/10 09:20:17;;;;;;;5.00;3.60;;;15.80;99.90;;;;;;4930150;28;20096;-57
2023/10/10 09:22:44;;;;;;;7.03;4.40;;;15.70;99.90;;;;;;4925853;29;20583;-55
2023/10/10 09:25:26;;;;;;;9.20;4.65;;;15.70;99.90;;;;;;4928423;28;20114;-57
2023/10/10 09:28:05;;;;;;;5.20;4.47;;;15.70;99.90;;;;;;4925885;29;20039;-57
2023/10/10 09:30:45;;;;;;;5.45;3.90;;;15.70;99.90;;;;;;4930400;29;20023;-55
2023/10/10 09:33:27;;;;;;;5.38;3.88;;;15.70;99.90;;;;;;4927345;29;20233;-56
2023/10/10 09:36:09;;;;;;;6.15;4.53;;;15.70;99.90;;;;;;4926147;28;20130;-58
2023/10/10 09:38:43;;;;;;;11.35;5.00;;;15.70;99.90;;;;;;4927519;29;20031;-58
2023/10/10 09:41:14;;;;;;;6.75;4.43;;;15.70;99.90;;;;;;4926943;29;20111;-58
2023/10/10 09:50:00;;;;;;;5.32;3.60;;;15.90;99.90;;;;;;4924425;29;20497;-57
2023/10/10 10:00:48;;;;;;;5.57;2.75;;;16.50;99.90;;;;;;4887657;29;20049;-56
2023/10/10 10:03:31;;;;;;;2.65;2.45;;;16.80;99.90;;;;;;4918894;29;20071;-57
2023/10/10 10:09:09;;;;;;;3.90;2.33;;;17.20;99.90;;;;;;4924357;29;20039;-58
2023/10/10 10:12:13;;;;;;;5.55;2.08;;;17.30;99.90;;;;;;4925747;28;20012;-55
2023/10/10 10:15:12;;;;;;;3.33;1.85;;;17.40;99.90;;;;;;4905239;29;20036;-56
2023/10/10 10:21:18;;;;;;;1.73;1.63;;;17.30;99.90;;;;;;4926957;28;20395;-56
2023/10/10 10:23:46;;;;;;;2.20;1.52;;;17.50;99.90;;;;;;4926995;29;20035;-57
2023/10/10 10:28:57;;;;;;;2.95;1.60;;;17.90;99.90;;;;;;4924027;29;20122;-56
2023/10/10 10:31:29;;;;;;;3.35;1.67;;;18.10;99.90;;;;;;4929152;29;20507;-57
2023/10/10 10:34:16;;;;;;;2.65;1.80;;;18.20;99.90;;;;;;4929808;29;20094;-57
2023/10/10 10:36:54;;;;;;;3.17;1.50;;;18.30;99.90;;;;;;4922435;29;20039;-57
2023/10/10 10:39:25;;;;;;;1.58;1.48;;;18.40;99.90;;;;;;4924133;29;20655;-57
2023/10/10 10:41:56;;;;;;;1.40;1.20;;;18.50;99.90;;;;;;4925677;29;20523;-57
2023/10/10 10:47:35;;;;;;;2.17;1.30;;;18.60;99.50;;;;;;4919076;28;20420;-57
2023/10/10 10:50:28;;;;;;;1.60;1.40;;;18.60;99.60;;;;;;4926884;29;20696;-59
2023/10/10 10:52:59;;;;;;;4.25;1.65;;;18.50;94.50;;;;;;4921396;29;20042;-58
2023/10/10 10:55:27;;;;;;;2.20;1.33;;;18.60;96.60;;;;;;4923995;29;20071;-57
2023/10/10 11:03:35;;;;;;;2.22;0.90;;;18.40;98.30;;;;;;4928636;29;20073;-59
2023/10/10 11:06:06;;;;;;;1.20;1.13;;;18.40;98.40;;;;;;4926355;29;20034;-58
2023/10/10 11:14:09;;;;;;;1.25;1.15;;;18.40;96.60;;;;;;4929453;28;20057;-58
2023/10/10 11:16:38;;;;;;;1.88;1.27;;;18.40;95.30;;;;;;4929874;28;20028;-58
2023/10/10 11:21:56;;;;;;;2.30;1.40;;;18.50;94.70;;;;;;4932729;29;20484;-57
2023/10/10 11:24:46;;;;;;;1.20;1.00;;;18.50;94.90;;;;;;4933892;29;20521;-57
2023/10/10 11:29:47;;;;;;;2.20;0.95;;;18.70;94.50;;;;;;4931304;28;20126;-58
2023/10/10 11:32:15;;;;;;;1.13;0.80;;;18.80;93.80;;;;;;4929068;28;20504;-58
2023/10/10 11:34:44;;;;;;;1.42;0.80;;;18.80;91.40;;;;;;4928338;29;20031;-57
2023/10/10 11:37:17;;;;;;;2.13;0.95;;;18.90;91.10;;;;;;4923413;28;20044;-58
2023/10/10 11:39:55;;;;;;;0.93;0.80;;;18.80;91.90;;;;;;4930153;28;20023;-56
2023/10/10 11:42:26;;;;;;;3.30;1.08;;;18.80;92.10;;;;;;4931951;29;20531;-57
2023/10/10 11:44:54;;;;;;;2.30;0.95;;;18.90;90.30;;;;;;4930898;29;20034;-58
2023/10/10 11:47:24;;;;;;;3.17;0.95;;;18.80;91.40;;;;;;4929289;28;20059;-58
2023/10/10 11:50:00;;;;;;;1.15;1.00;;;18.90;92.00;;;;;;4929875;29;20395;-58
2023/10/10 11:52:27;;;;;;;1.13;0.90;;;18.90;91.80;;;;;;4928686;28;20046;-58
2023/10/10 11:54:55;;;;;;;1.88;1.00;;;18.80;92.30;;;;;;4931939;29;20035;-58
2023/10/10 11:57:20;;;;;;;1.58;1.00;;;18.80;92.40;;;;;;4928569;29;20031;-57
2023/10/10 11:59:46;;;;;;;1.27;1.10;;;18.80;92.20;;;;;;4929813;28;20031;-57
2023/10/10 12:02:16;;;;;;;1.58;1.27;;;18.70;92.00;;;;;;4931764;29;20123;-57
2023/10/10 12:04:44;;;;;;;1.90;0.90;;;18.70;92.30;;;;;;4932270;29;20099;-58
2023/10/10 12:07:13;;;;;;;2.17;1.20;;;18.60;92.30;;;;;;4933532;29;20506;-58
2023/10/10 12:09:44;;;;;;;1.05;0.95;;;18.70;92.70;;;;;;4925988;29;20016;-57
2023/10/10 12:12:10;;;;;;;2.08;1.50;;;18.60;92.00;;;;;;4929605;29;20028;-58
2023/10/10 12:14:36;;;;;;;1.33;1.20;;;18.70;92.40;;;;;;4928478;29;20119;-58
2023/10/10 12:17:05;;;;;;;2.63;1.00;;;18.70;91.70;;;;;;4928046;29;20031;-56
2023/10/10 12:19:36;;;;;;;2.90;1.20;;;18.70;92.00;;;;;;4930736;29;20451;-57
2023/10/10 12:22:08;;;;;;;1.58;1.27;;;18.80;91.90;;;;;;4931153;28;20119;-58
2023/10/10 12:24:35;;;;;;;1.25;0.85;;;18.70;92.10;;;;;;4932181;28;20039;-58
2023/10/10 12:27:01;;;;;;;2.28;1.20;;;18.80;92.60;;;;;;4929299;29;20031;-58
2023/10/10 12:29:30;;;;;;;3.22;1.48;;;18.90;92.40;;;;;;4929168;28;20102;-57
2023/10/10 12:31:56;;;;;;;3.30;1.48;;;18.80;92.60;;;;;;4923509;29;20027;-59
2023/10/10 12:34:24;;;;;;;2.78;1.38;;;18.90;93.10;;;;;;4927901;29;20380;-56
2023/10/10 12:36:59;;;;;;;1.73;1.50;;;18.70;92.30;;;;;;4923958;29;20078;-58
2023/10/10 12:39:27;;;;;;;2.13;1.45;;;18.70;92.80;;;;;;4929440;28;20046;-58
2023/10/10 12:41:53;;;;;;;1.70;1.40;;;18.50;92.40;;;;;;4931728;28;20035;-57
2023/10/10 12:44:19;;;;;;;1.63;1.52;;;18.50;93.30;;;;;;4928536;28;20503;-57
2023/10/10 12:46:45;;;;;;;3.92;1.83;;;18.50;93.50;;;;;;4926233;29;20028;-66
2023/10/10 12:49:11;;;;;;;1.92;1.60;;;18.40;93.60;;;;;;4927669;29;20042;-66
2023/10/10 12:51:38;;;;;;;3.75;1.73;;;18.20;93.80;;;;;;4926612;29;20015;-66
2023/10/10 12:54:09;;;;;;;2.03;1.20;;;18.10;94.30;;;;;;4928299;29;20035;-66
2023/10/10 12:56:48;;;;;;;3.72;1.83;;;18.00;94.90;;;;;;4927908;28;20372;-66
2023/10/10 12:59:15;;;;;;;2.28;1.55;;;17.90;95.00;;;;;;4926542;29;20110;-66
2023/10/10 13:01:41;;;;;;;2.10;1.50;;;17.80;95.40;;;;;;4926941;29;20034;-65
2023/10/10 13:04:07;;;;;;;3.13;1.73;;;17.70;95.50;;;;;;4930339;28;20395;-66
2023/10/10 13:06:35;;;;;;;2.03;1.83;;;17.60;95.70;;;;;;4927188;28;20034;-65
2023/10/10 13:09:05;;;;;;;2.22;1.40;;;17.60;96.00;;;;;;4926516;28;20027;-65
2023/10/10 13:11:35;;;;;;;3.65;1.80;;;17.70;96.30;;;;;;4928690;28;20495;-66
2023/10/10 13:14:14;;;;;;;3.88;1.52;;;17.70;96.00;;;;;;4926876;29;20476;-65
2023/10/10 13:19:09;;;;;;;3.40;1.98;;;17.80;96.40;;;;;;4931798;29;20422;-66
2023/10/10 13:21:36;;;;;;;2.08;1.55;;;17.80;96.40;;;;;;4928946;28;20031;-65
2023/10/10 13:24:03;;;;;;;2.40;1.55;;;18.00;96.10;;;;;;4929891;28;20138;-65
2023/10/10 13:26:29;;;;;;;2.80;1.50;;;18.10;95.80;;;;;;4927111;29;20102;-66
2023/10/10 13:28:54;;;;;;;1.70;1.60;;;18.20;95.50;;;;;;4930051;28;20696;-65
2023/10/10 13:31:24;;;;;;;1.77;1.40;;;18.20;94.60;;;;;;4928510;29;20031;-65
2023/10/10 13:33:51;;;;;;;3.08;1.63;;;18.20;94.50;;;;;;4922720;28;20028;-66
2023/10/10 13:36:16;;;;;;;3.58;1.30;;;18.20;94.70;;;;;;4920722;29;20032;-65
2023/10/10 13:38:47;;;;;;;2.97;1.50;;;18.10;94.80;;;;;;4929813;28;20027;-65
2023/10/10 13:41:19;;;;;;;2.22;1.50;;;18.20;94.80;;;;;;4926779;28;20604;-66
2023/10/10 13:43:51;;;;;;;2.45;1.20;;;18.20;95.00;;;;;;4928030;29;20028;-65
2023/10/10 13:46:19;;;;;;;2.42;1.60;;;18.10;95.00;;;;;;4929647;29;20031;-65
2023/10/10 13:48:45;;;;;;;1.65;1.30;;;18.10;94.80;;;;;;4927201;29;20028;-65
2023/10/10 13:51:13;;;;;;;3.05;1.52;;;18.00;94.70;;;;;;4927720;28;20032;-65
2023/10/10 13:53:40;;;;;;;2.55;1.30;;;17.80;94.70;;;;;;4926390;29;20023;-67
2023/10/10 13:56:07;;;;;;;4.03;1.50;;;17.80;95.20;;;;;;4931524;29;20492;-65
2023/10/10 13:58:33;;;;;;;2.65;1.48;;;17.70;95.40;;;;;;4928908;29;20034;-66
2023/10/10 14:01:14;;;;;;;2.90;1.42;;;17.70;95.50;;;;;;4926236;28;20031;-65
2023/10/10 14:03:48;;;;;;;2.92;1.83;;;17.60;95.80;;;;;;4923941;29;20484;-66
2023/10/10 14:06:16;;;;;;;3.67;1.40;;;17.60;95.90;;;;;;4928646;29;20024;-65
2023/10/10 14:08:47;;;;;;;3.13;1.60;;;17.50;96.10;;;;;;4922979;29;20045;-66
2023/10/10 14:11:22;;;;;;;2.50;1.50;;;17.60;96.30;;;;;;4926550;28;20027;-65
2023/10/10 14:13:49;;;;;;;2.67;1.57;;;17.70;96.20;;;;;;4929455;29;20123;-65
2023/10/10 14:16:14;;;;;;;3.10;1.75;;;17.70;96.00;;;;;;4930712;28;20031;-66
2023/10/10 14:18:45;;;;;;;2.65;1.40;;;17.70;95.90;;;;;;4928850;29;20091;-65
2023/10/10 14:21:12;;;;;;;3.40;1.67;;;17.70;95.50;;;;;;4919295;29;20504;-66
2023/10/10 14:23:41;;;;;;;3.55;1.50;;;17.70;95.60;;;;;;4921309;29;20050;-66
2023/10/10 14:26:18;;;;;;;2.13;1.50;;;17.80;95.90;;;;;;4921497;29;20028;-66
2023/10/10 14:28:50;;;;;;;2.05;1.52;;;17.80;95.90;;;;;;4919847;29;20016;-66
2023/10/10 14:31:21;;;;;;;3.83;1.50;;;17.80;95.70;;;;;;4918751;29;20556;-66
2023/10/10 14:33:47;;;;;;;2.10;1.30;;;17.70;95.80;;;;;;4919563;29;20031;-66
2023/10/10 14:36:13;;;;;;;4.70;1.63;;;17.70;95.90;;;;;;4914649;29;20547;-66
2023/10/10 14:38:44;;;;;;;4.97;1.50;;;17.60;95.80;;;;;;4923149;29;20024;-66
2023/10/10 14:41:16;;;;;;;2.35;1.67;;;17.60;95.80;;;;;;4924929;29;20039;-66
2023/10/10 14:43:47;;;;;;;2.95;1.33;;;17.50;96.00;;;;;;4932613;29;20526;-66
2023/10/10 14:46:21;;;;;;;3.47;1.55;;;17.50;96.30;;;;;;4931762;28;20035;-66
2023/10/10 14:48:50;;;;;;;5.57;1.60;;;17.40;96.50;;;;;;4923286;29;20098;-66
2023/10/10 14:51:19;;;;;;;3.03;1.55;;;17.40;96.80;;;;;;4922649;29;20035;-66
2023/10/10 14:53:51;;;;;;;2.20;1.40;;;17.30;97.10;;;;;;4921126;29;20407;-66
2023/10/10 14:56:34;;;;;;;1.83;1.40;;;17.30;97.40;;;;;;4924767;29;20024;-66
2023/10/10 14:59:00;;;;;;;2.45;1.58;;;17.20;97.30;;;;;;4921994;29;20032;-66
2023/10/10 15:01:25;;;;;;;2.25;1.50;;;17.10;97.40;;;;;;4924489;29;20135;-65
2023/10/10 15:03:51;;;;;;;3.00;1.70;;;17.10;97.60;;;;;;4922434;29;20102;-66
2023/10/10 15:06:21;;;;;;;1.83;1.65;;;17.10;97.90;;;;;;4924698;29;20759;-66
2023/10/10 15:08:46;;;;;;;1.85;1.60;;;17.10;98.00;;;;;;4924621;29;20032;-66
2023/10/10 15:11:12;;;;;;;2.65;1.55;;;17.10;98.20;;;;;;4924351;29;20039;-66
2023/10/10 15:13:41;;;;;;;3.10;1.48;;;17.00;98.50;;;;;;4924438;29;20098;-66
2023/10/10 15:16:10;;;;;;;4.07;1.48;;;17.00;98.60;;;;;;4924310;29;20039;-66
2023/10/10 15:18:36;;;;;;;2.70;1.48;;;17.00;99.00;;;;;;4924345;29;20100;-66
2023/10/10 15:21:02;;;;;;;2.72;1.70;;;16.90;98.90;;;;;;4923915;29;20032;-57
2023/10/10 15:23:28;;;;;;;3.13;1.52;;;16.90;99.40;;;;;;4922211;29;20043;-57
2023/10/10 15:25:55;;;;;;;3.05;1.75;;;16.90;99.70;;;;;;4924141;29;20024;-58
2023/10/10 15:28:21;;;;;;;1.83;1.60;;;16.90;99.90;;;;;;4924074;29;20036;-57
2023/10/10 15:30:47;;;;;;;2.55;1.92;;;16.90;99.90;;;;;;4924273;29;20024;-57
2023/10/10 15:33:17;;;;;;;2.95;1.30;;;16.80;99.90;;;;;;4932034;28;20398;-57
2023/10/10 15:35:46;;;;;;;3.72;1.67;;;16.80;99.90;;;;;;4928417;29;20425;-57
2023/10/10 15:38:12;;;;;;;4.85;1.90;;;16.70;99.90;;;;;;4921183;29;20043;-56
2023/10/10 15:40:43;;;;;;;3.03;1.77;;;16.70;99.90;;;;;;4923716;29;20016;-57
2023/10/10 15:43:12;;;;;;;1.75;1.48;;;16.70;99.90;;;;;;4923740;29;20035;-56
2023/10/10 15:45:42;;;;;;;2.55;1.45;;;16.70;99.90;;;;;;4925662;29;20031;-57
2023/10/10 15:48:21;;;;;;;2.03;1.48;;;16.70;99.90;;;;;;4921830;29;20233;-58
2023/10/10 15:50:48;;;;;;;3.42;1.45;;;16.60;99.90;;;;;;4920160;29;20023;-58
2023/10/10 15:53:13;;;;;;;1.83;1.70;;;16.60;99.90;;;;;;4923506;29;20793;-58
2023/10/10 15:55:39;;;;;;;2.55;1.90;;;16.50;99.90;;;;;;4925476;29;20054;-57
2023/10/10 15:58:07;;;;;;;3.28;2.35;;;16.50;99.90;;;;;;4923546;29;20435;-58
2023/10/10 16:00:32;;;;;;;2.97;2.00;;;16.50;99.90;;;;;;4923683;29;20108;-58
2023/10/10 16:03:06;;;;;;;4.35;2.40;;;16.40;99.90;;;;;;4921625;29;20123;-58
2023/10/10 16:05:41;;;;;;;5.45;1.90;;;16.30;99.90;;;;;;4923501;29;20024;-56